sensor_id;sensor_type;location;lat;lon;timestamp;temperature;humidity
43581;DHT22;29175;51.030;4.606;2022-12-16T00:01:26;-1.90;99.90
43581;DHT22;29175;51.030;4.606;2022-12-16T00:03:56;-1.90;99.90
43581;DHT22;29175;51.030;4.606;2022-12-16T00:06:28;-1.90;99.90
43581;DHT22;29175;51.030;4.606;2022-12-16T00:08:55;-1.80;99.90
43581;DHT22;29175;51.030;4.606;2022-12-16T00:11:23;-1.80;99.90
43581;DHT22;29175;51.030;4.606;2022-12-16T00:13:49;-1.90;99.90
43581;DHT22;29175;51.030;4.606;2022-12-16T00:16:16;-1.80;99.90
43581;DHT22;29175;51.030;4.606;2022-12-16T00:18:44;-1.80;99.90
43581;DHT22;29175;51.030;4.606;2022-12-16T00:21:11;-1.60;99.90
43581;DHT22;29175;51.030;4.606;2022-12-16T00:23:38;-1.50;99.90
43581;DHT22;29175;51.030;4.606;2022-12-16T00:26:06;-1.40;99.90
43581;DHT22;29175;51.030;4.606;2022-12-16T00:28:32;-1.40;99.90
43581;DHT22;29175;51.030;4.606;2022-12-16T00:30:58;-1.30;99.90
43581;DHT22;29175;51.030;4.606;2022-12-16T00:33:25;-1.10;99.90
43581;DHT22;29175;51.030;4.606;2022-12-16T00:35:52;-1.10;99.90
43581;DHT22;29175;51.030;4.606;2022-12-16T00:38:19;-1.00;99.90
43581;DHT22;29175;51.030;4.606;2022-12-16T00:40:46;-1.10;99.90
43581;DHT22;29175;51.030;4.606;2022-12-16T00:43:12;-1.00;99.90
43581;DHT22;29175;51.030;4.606;2022-12-16T00:45:37;-1.00;99.90
43581;DHT22;29175;51.030;4.606;2022-12-16T00:48:05;-1.00;99.90
43581;DHT22;29175;51.030;4.606;2022-12-16T00:50:32;-1.00;99.90
43581;DHT22;29175;51.030;4.606;2022-12-16T00:53:00;-0.90;99.90
43581;DHT22;29175;51.030;4.606;2022-12-16T00:55:28;-0.80;99.90
43581;DHT22;29175;51.030;4.606;2022-12-16T00:57:53;-0.70;99.90
43581;DHT22;29175;51.030;4.606;2022-12-16T01:00:19;-0.70;99.90
43581;DHT22;29175;51.030;4.606;2022-12-16T01:02:48;-0.60;99.90
43581;DHT22;29175;51.030;4.606;2022-12-16T01:05:16;-0.40;99.90
43581;DHT22;29175;51.030;4.606;2022-12-16T01:07:43;-0.20;99.90
43581;DHT22;29175;51.030;4.606;2022-12-16T01:10:10;-0.30;99.90
43581;DHT22;29175;51.030;4.606;2022-12-16T01:12:36;-0.10;99.90
43581;DHT22;29175;51.030;4.606;2022-12-16T01:15:04;0.00;99.90
43581;DHT22;29175;51.030;4.606;2022-12-16T01:17:30;0.00;99.90
43581;DHT22;29175;51.030;4.606;2022-12-16T01:19:55;0.10;99.90
43581;DHT22;29175;51.030;4.606;2022-12-16T01:22:22;0.10;99.90
43581;DHT22;29175;51.030;4.606;2022-12-16T01:24:48;0.20;99.90
43581;DHT22;29175;51.030;4.606;2022-12-16T01:27:16;0.20;99.90
43581;DHT22;29175;51.030;4.606;2022-12-16T01:29:42;0.30;99.90
43581;DHT22;29175;51.030;4.606;2022-12-16T01:32:14;0.30;99.90
43581;DHT22;29175;51.030;4.606;2022-12-16T01:34:40;0.40;99.90
43581;DHT22;29175;51.030;4.606;2022-12-16T01:37:07;0.50;99.90
43581;DHT22;29175;51.030;4.606;2022-12-16T01:39:35;0.40;99.90
43581;DHT22;29175;51.030;4.606;2022-12-16T01:42:01;0.50;99.90
43581;DHT22;29175;51.030;4.606;2022-12-16T01:44:27;0.40;99.90
43581;DHT22;29175;51.030;4.606;2022-12-16T01:47:01;0.60;99.90
43581;DHT22;29175;51.030;4.606;2022-12-16T01:49:42;0.50;99.90
43581;DHT22;29175;51.030;4.606;2022-12-16T01:52:14;0.70;99.90
43581;DHT22;29175;51.030;4.606;2022-12-16T01:54:48;0.70;99.90
43581;DHT22;29175;51.030;4.606;2022-12-16T01:57:21;0.70;99.90
43581;DHT22;29175;51.030;4.606;2022-12-16T01:59:51;0.70;99.90
43581;DHT22;29175;51.030;4.606;2022-12-16T02:02:17;0.80;99.90
43581;DHT22;29175;51.030;4.606;2022-12-16T02:04:43;0.80;99.90
43581;DHT22;29175;51.030;4.606;2022-12-16T02:07:27;0.90;99.90
43581;DHT22;29175;51.030;4.606;2022-12-16T02:09:53;0.70;99.90
43581;DHT22;29175;51.030;4.606;2022-12-16T02:20:46;0.90;99.90
43581;DHT22;29175;51.030;4.606;2022-12-16T02:32:42;0.90;99.90
43581;DHT22;29175;51.030;4.606;2022-12-16T02:35:17;1.10;99.90
43581;DHT22;29175;51.030;4.606;2022-12-16T02:40:34;1.10;99.90
43581;DHT22;29175;51.030;4.606;2022-12-16T02:43:07;1.00;99.90
43581;DHT22;29175;51.030;4.606;2022-12-16T02:45:40;1.10;99.90
43581;DHT22;29175;51.030;4.606;2022-12-16T02:48:06;1.20;99.90
43581;DHT22;29175;51.030;4.606;2022-12-16T02:50:44;1.10;99.90
43581;DHT22;29175;51.030;4.606;2022-12-16T02:53:13;1.30;99.90
43581;DHT22;29175;51.030;4.606;2022-12-16T02:58:31;1.40;99.90
43581;DHT22;29175;51.030;4.606;2022-12-16T03:06:42;1.40;99.90
43581;DHT22;29175;51.030;4.606;2022-12-16T03:09:11;1.30;99.90
43581;DHT22;29175;51.030;4.606;2022-12-16T03:11:43;1.40;99.90
43581;DHT22;29175;51.030;4.606;2022-12-16T03:14:14;1.50;99.90
43581;DHT22;29175;51.030;4.606;2022-12-16T03:16:43;1.50;99.90
43581;DHT22;29175;51.030;4.606;2022-12-16T03:19:12;1.50;99.90
43581;DHT22;29175;51.030;4.606;2022-12-16T03:21:56;1.70;99.90
43581;DHT22;29175;51.030;4.606;2022-12-16T03:24:27;1.60;99.90
43581;DHT22;29175;51.030;4.606;2022-12-16T03:27:11;1.60;99.90
43581;DHT22;29175;51.030;4.606;2022-12-16T03:32:36;1.60;99.90
43581;DHT22;29175;51.030;4.606;2022-12-16T03:35:15;1.70;99.90
43581;DHT22;29175;51.030;4.606;2022-12-16T03:37:47;1.70;99.90
43581;DHT22;29175;51.030;4.606;2022-12-16T03:40:15;1.60;99.90
43581;DHT22;29175;51.030;4.606;2022-12-16T03:42:41;1.40;99.90
43581;DHT22;29175;51.030;4.606;2022-12-16T03:45:12;1.40;99.90
43581;DHT22;29175;51.030;4.606;2022-12-16T03:47:41;1.50;99.90
43581;DHT22;29175;51.030;4.606;2022-12-16T03:50:07;1.70;99.90
43581;DHT22;29175;51.030;4.606;2022-12-16T03:52:34;1.70;99.90
43581;DHT22;29175;51.030;4.606;2022-12-16T03:55:00;1.80;99.90
43581;DHT22;29175;51.030;4.606;2022-12-16T03:57:28;1.70;99.90
43581;DHT22;29175;51.030;4.606;2022-12-16T03:59:54;1.80;99.90
43581;DHT22;29175;51.030;4.606;2022-12-16T04:02:21;1.80;99.90
43581;DHT22;29175;51.030;4.606;2022-12-16T04:04:49;1.90;99.90
43581;DHT22;29175;51.030;4.606;2022-12-16T04:07:17;1.90;99.90
43581;DHT22;29175;51.030;4.606;2022-12-16T04:09:52;2.00;99.90
43581;DHT22;29175;51.030;4.606;2022-12-16T04:12:18;1.90;99.90
43581;DHT22;29175;51.030;4.606;2022-12-16T04:15:25;1.80;99.90
43581;DHT22;29175;51.030;4.606;2022-12-16T04:18:17;1.90;99.90
43581;DHT22;29175;51.030;4.606;2022-12-16T04:21:03;1.90;99.90
43581;DHT22;29175;51.030;4.606;2022-12-16T04:23:54;1.90;99.90
43581;DHT22;29175;51.030;4.606;2022-12-16T04:26:40;2.00;99.90
43581;DHT22;29175;51.030;4.606;2022-12-16T04:29:25;2.00;99.90
43581;DHT22;29175;51.030;4.606;2022-12-16T04:31:51;2.10;99.90
43581;DHT22;29175;51.030;4.606;2022-12-16T04:34:19;2.00;99.90
43581;DHT22;29175;51.030;4.606;2022-12-16T04:36:57;2.00;99.90
43581;DHT22;29175;51.030;4.606;2022-12-16T04:39:42;2.10;99.90
43581;DHT22;29175;51.030;4.606;2022-12-16T04:42:30;2.00;99.90
43581;DHT22;29175;51.030;4.606;2022-12-16T04:45:18;2.10;99.90
43581;DHT22;29175;51.030;4.606;2022-12-16T04:48:08;2.20;99.90
43581;DHT22;29175;51.030;4.606;2022-12-16T04:50:52;2.10;99.90
43581;DHT22;29175;51.030;4.606;2022-12-16T04:53:36;2.20;99.90
43581;DHT22;29175;51.030;4.606;2022-12-16T04:56:21;2.10;99.90
43581;DHT22;29175;51.030;4.606;2022-12-16T04:59:07;2.10;99.90
43581;DHT22;29175;51.030;4.606;2022-12-16T05:01:50;2.10;99.90
43581;DHT22;29175;51.030;4.606;2022-12-16T05:04:34;2.10;99.90
43581;DHT22;29175;51.030;4.606;2022-12-16T05:07:19;2.00;99.90
43581;DHT22;29175;51.030;4.606;2022-12-16T05:10:06;2.00;99.90
43581;DHT22;29175;51.030;4.606;2022-12-16T05:12:53;2.00;99.90
43581;DHT22;29175;51.030;4.606;2022-12-16T05:15:38;2.10;99.90
43581;DHT22;29175;51.030;4.606;2022-12-16T05:18:23;1.90;99.90
43581;DHT22;29175;51.030;4.606;2022-12-16T05:21:07;2.00;99.90
43581;DHT22;29175;51.030;4.606;2022-12-16T05:23:52;2.10;99.90
43581;DHT22;29175;51.030;4.606;2022-12-16T05:26:36;2.10;99.90
43581;DHT22;29175;51.030;4.606;2022-12-16T05:29:20;2.20;99.90
43581;DHT22;29175;51.030;4.606;2022-12-16T05:32:04;2.30;99.90
43581;DHT22;29175;51.030;4.606;2022-12-16T05:34:48;2.30;99.90
43581;DHT22;29175;51.030;4.606;2022-12-16T05:37:32;2.30;99.90
43581;DHT22;29175;51.030;4.606;2022-12-16T05:40:17;2.30;99.90
43581;DHT22;29175;51.030;4.606;2022-12-16T05:43:01;2.20;99.90
43581;DHT22;29175;51.030;4.606;2022-12-16T05:45:45;2.20;99.90
43581;DHT22;29175;51.030;4.606;2022-12-16T05:48:47;2.00;99.90
43581;DHT22;29175;51.030;4.606;2022-12-16T05:51:32;1.90;99.90
43581;DHT22;29175;51.030;4.606;2022-12-16T05:54:17;1.80;99.90
43581;DHT22;29175;51.030;4.606;2022-12-16T05:57:01;1.80;99.90
43581;DHT22;29175;51.030;4.606;2022-12-16T05:59:45;1.80;99.90
43581;DHT22;29175;51.030;4.606;2022-12-16T06:02:29;1.60;99.90
43581;DHT22;29175;51.030;4.606;2022-12-16T06:05:14;1.50;99.90
43581;DHT22;29175;51.030;4.606;2022-12-16T06:08:15;1.40;99.90
43581;DHT22;29175;51.030;4.606;2022-12-16T06:10:59;1.40;99.90
43581;DHT22;29175;51.030;4.606;2022-12-16T06:13:46;1.20;99.90
43581;DHT22;29175;51.030;4.606;2022-12-16T06:16:30;1.10;99.90
43581;DHT22;29175;51.030;4.606;2022-12-16T06:19:16;1.10;99.90
43581;DHT22;29175;51.030;4.606;2022-12-16T06:22:00;1.00;99.90
43581;DHT22;29175;51.030;4.606;2022-12-16T06:24:44;0.90;99.90
43581;DHT22;29175;51.030;4.606;2022-12-16T06:27:29;1.00;99.90
43581;DHT22;29175;51.030;4.606;2022-12-16T06:30:13;1.00;99.90
43581;DHT22;29175;51.030;4.606;2022-12-16T06:32:57;1.00;99.90
43581;DHT22;29175;51.030;4.606;2022-12-16T06:35:42;1.10;99.90
43581;DHT22;29175;51.030;4.606;2022-12-16T06:38:26;1.10;99.90
43581;DHT22;29175;51.030;4.606;2022-12-16T06:41:11;1.20;99.90
43581;DHT22;29175;51.030;4.606;2022-12-16T06:43:55;1.20;99.90
43581;DHT22;29175;51.030;4.606;2022-12-16T06:46:42;1.30;99.90
43581;DHT22;29175;51.030;4.606;2022-12-16T06:49:27;1.40;99.90
43581;DHT22;29175;51.030;4.606;2022-12-16T06:52:15;1.40;99.90
43581;DHT22;29175;51.030;4.606;2022-12-16T06:55:01;1.50;99.90
43581;DHT22;29175;51.030;4.606;2022-12-16T06:57:45;1.60;99.90
43581;DHT22;29175;51.030;4.606;2022-12-16T07:00:29;1.70;99.90
43581;DHT22;29175;51.030;4.606;2022-12-16T07:03:14;1.70;99.90
43581;DHT22;29175;51.030;4.606;2022-12-16T07:05:58;1.70;99.90
43581;DHT22;29175;51.030;4.606;2022-12-16T07:08:43;1.70;99.90
43581;DHT22;29175;51.030;4.606;2022-12-16T07:11:28;1.80;99.90
43581;DHT22;29175;51.030;4.606;2022-12-16T07:14:12;1.90;99.90
43581;DHT22;29175;51.030;4.606;2022-12-16T07:16:57;1.90;99.90
43581;DHT22;29175;51.030;4.606;2022-12-16T07:19:41;1.80;99.90
43581;DHT22;29175;51.030;4.606;2022-12-16T07:22:25;1.90;99.90
43581;DHT22;29175;51.030;4.606;2022-12-16T07:25:09;2.00;99.90
43581;DHT22;29175;51.030;4.606;2022-12-16T07:27:53;2.00;99.90
43581;DHT22;29175;51.030;4.606;2022-12-16T07:30:42;2.20;99.90
43581;DHT22;29175;51.030;4.606;2022-12-16T07:33:26;2.20;99.90
43581;DHT22;29175;51.030;4.606;2022-12-16T07:36:10;2.30;99.90
43581;DHT22;29175;51.030;4.606;2022-12-16T07:38:54;2.50;99.90
43581;DHT22;29175;51.030;4.606;2022-12-16T07:41:38;2.40;99.90
43581;DHT22;29175;51.030;4.606;2022-12-16T07:44:25;2.30;99.90
43581;DHT22;29175;51.030;4.606;2022-12-16T07:47:09;2.50;99.90
43581;DHT22;29175;51.030;4.606;2022-12-16T07:49:53;2.30;99.90
43581;DHT22;29175;51.030;4.606;2022-12-16T07:52:38;2.20;99.90
43581;DHT22;29175;51.030;4.606;2022-12-16T07:55:22;2.20;99.90
43581;DHT22;29175;51.030;4.606;2022-12-16T07:58:06;2.20;99.90
43581;DHT22;29175;51.030;4.606;2022-12-16T08:00:50;2.20;99.90
43581;DHT22;29175;51.030;4.606;2022-12-16T08:03:34;2.30;99.90
43581;DHT22;29175;51.030;4.606;2022-12-16T08:06:18;2.20;99.90
43581;DHT22;29175;51.030;4.606;2022-12-16T08:09:04;2.20;99.90
43581;DHT22;29175;51.030;4.606;2022-12-16T08:11:48;2.20;99.90
43581;DHT22;29175;51.030;4.606;2022-12-16T08:14:32;2.30;99.90
43581;DHT22;29175;51.030;4.606;2022-12-16T08:17:17;2.40;99.90
43581;DHT22;29175;51.030;4.606;2022-12-16T08:20:01;2.50;99.90
43581;DHT22;29175;51.030;4.606;2022-12-16T08:22:45;2.70;99.90
43581;DHT22;29175;51.030;4.606;2022-12-16T08:25:31;2.60;99.90
43581;DHT22;29175;51.030;4.606;2022-12-16T08:28:16;2.80;99.90
43581;DHT22;29175;51.030;4.606;2022-12-16T08:31:00;2.90;99.90
43581;DHT22;29175;51.030;4.606;2022-12-16T08:33:44;2.80;99.90
43581;DHT22;29175;51.030;4.606;2022-12-16T08:36:29;2.90;99.90
43581;DHT22;29175;51.030;4.606;2022-12-16T08:39:13;2.90;99.90
43581;DHT22;29175;51.030;4.606;2022-12-16T08:41:57;3.00;99.90
43581;DHT22;29175;51.030;4.606;2022-12-16T08:44:41;3.00;99.90
43581;DHT22;29175;51.030;4.606;2022-12-16T08:47:25;2.90;99.90
43581;DHT22;29175;51.030;4.606;2022-12-16T08:50:09;3.10;99.90
43581;DHT22;29175;51.030;4.606;2022-12-16T08:52:54;3.10;99.90
43581;DHT22;29175;51.030;4.606;2022-12-16T08:55:38;3.00;99.90
43581;DHT22;29175;51.030;4.606;2022-12-16T08:58:23;3.00;99.90
43581;DHT22;29175;51.030;4.606;2022-12-16T09:01:07;3.10;99.90
43581;DHT22;29175;51.030;4.606;2022-12-16T09:03:51;3.10;99.90
43581;DHT22;29175;51.030;4.606;2022-12-16T09:06:35;3.00;99.90
43581;DHT22;29175;51.030;4.606;2022-12-16T09:09:21;3.10;99.90
43581;DHT22;29175;51.030;4.606;2022-12-16T09:12:06;3.00;99.90
43581;DHT22;29175;51.030;4.606;2022-12-16T09:14:50;3.10;99.90
43581;DHT22;29175;51.030;4.606;2022-12-16T09:17:35;3.10;99.90
43581;DHT22;29175;51.030;4.606;2022-12-16T09:20:29;2.90;99.90
43581;DHT22;29175;51.030;4.606;2022-12-16T09:23:14;3.00;99.90
43581;DHT22;29175;51.030;4.606;2022-12-16T09:25:59;2.90;99.90
43581;DHT22;29175;51.030;4.606;2022-12-16T09:28:44;3.20;99.90
43581;DHT22;29175;51.030;4.606;2022-12-16T09:31:28;3.10;99.90
43581;DHT22;29175;51.030;4.606;2022-12-16T09:34:12;2.90;99.90
43581;DHT22;29175;51.030;4.606;2022-12-16T09:36:56;3.20;99.90
43581;DHT22;29175;51.030;4.606;2022-12-16T09:39:40;3.20;99.90
43581;DHT22;29175;51.030;4.606;2022-12-16T09:45:52;3.60;99.90
43581;DHT22;29175;51.030;4.606;2022-12-16T09:48:55;3.50;99.90
43581;DHT22;29175;51.030;4.606;2022-12-16T09:51:43;3.70;99.90
43581;DHT22;29175;51.030;4.606;2022-12-16T09:54:32;3.80;99.90
43581;DHT22;29175;51.030;4.606;2022-12-16T09:57:18;3.70;99.90
43581;DHT22;29175;51.030;4.606;2022-12-16T10:00:07;3.60;99.90
43581;DHT22;29175;51.030;4.606;2022-12-16T10:02:55;3.60;99.90
43581;DHT22;29175;51.030;4.606;2022-12-16T10:06:00;3.60;99.90
43581;DHT22;29175;51.030;4.606;2022-12-16T10:09:15;3.90;99.90
43581;DHT22;29175;51.030;4.606;2022-12-16T10:12:23;4.20;99.90
43581;DHT22;29175;51.030;4.606;2022-12-16T10:17:53;3.50;99.90
43581;DHT22;29175;51.030;4.606;2022-12-16T10:20:46;3.30;99.90
43581;DHT22;29175;51.030;4.606;2022-12-16T10:23:48;3.70;99.90
43581;DHT22;29175;51.030;4.606;2022-12-16T10:26:59;3.60;99.90
43581;DHT22;29175;51.030;4.606;2022-12-16T10:29:47;3.60;99.90
43581;DHT22;29175;51.030;4.606;2022-12-16T10:32:45;3.60;99.90
43581;DHT22;29175;51.030;4.606;2022-12-16T10:41:14;3.80;99.90
43581;DHT22;29175;51.030;4.606;2022-12-16T10:44:04;4.20;99.90
43581;DHT22;29175;51.030;4.606;2022-12-16T10:46:49;4.50;99.90
43581;DHT22;29175;51.030;4.606;2022-12-16T10:49:33;4.80;99.90
43581;DHT22;29175;51.030;4.606;2022-12-16T10:52:18;4.70;99.90
43581;DHT22;29175;51.030;4.606;2022-12-16T10:55:23;4.70;99.90
43581;DHT22;29175;51.030;4.606;2022-12-16T10:58:26;4.80;99.90
43581;DHT22;29175;51.030;4.606;2022-12-16T11:01:26;4.60;99.90
43581;DHT22;29175;51.030;4.606;2022-12-16T11:04:31;4.50;99.90
43581;DHT22;29175;51.030;4.606;2022-12-16T11:07:29;4.80;99.90
43581;DHT22;29175;51.030;4.606;2022-12-16T11:13:29;4.50;99.90
43581;DHT22;29175;51.030;4.606;2022-12-16T11:16:20;4.60;99.90
43581;DHT22;29175;51.030;4.606;2022-12-16T11:19:20;4.70;99.90
43581;DHT22;29175;51.030;4.606;2022-12-16T11:22:23;4.70;99.90
43581;DHT22;29175;51.030;4.606;2022-12-16T11:28:25;4.60;99.90
43581;DHT22;29175;51.030;4.606;2022-12-16T11:31:13;4.50;99.90
43581;DHT22;29175;51.030;4.606;2022-12-16T11:33:59;4.60;99.90
43581;DHT22;29175;51.030;4.606;2022-12-16T11:36:46;4.70;99.90
43581;DHT22;29175;51.030;4.606;2022-12-16T11:39:51;4.60;99.90
43581;DHT22;29175;51.030;4.606;2022-12-16T11:42:35;4.80;99.90
43581;DHT22;29175;51.030;4.606;2022-12-16T11:45:20;5.00;99.90
43581;DHT22;29175;51.030;4.606;2022-12-16T11:48:20;5.10;99.90
43581;DHT22;29175;51.030;4.606;2022-12-16T11:51:11;5.20;99.90
43581;DHT22;29175;51.030;4.606;2022-12-16T11:54:14;5.20;99.90
43581;DHT22;29175;51.030;4.606;2022-12-16T11:57:44;5.20;99.90
43581;DHT22;29175;51.030;4.606;2022-12-16T12:00:30;5.20;99.90
43581;DHT22;29175;51.030;4.606;2022-12-16T12:03:21;4.80;99.90
43581;DHT22;29175;51.030;4.606;2022-12-16T12:06:35;4.90;99.90
43581;DHT22;29175;51.030;4.606;2022-12-16T12:09:26;4.90;99.90
43581;DHT22;29175;51.030;4.606;2022-12-16T12:12:32;5.00;99.90
43581;DHT22;29175;51.030;4.606;2022-12-16T12:18:56;5.10;99.90
43581;DHT22;29175;51.030;4.606;2022-12-16T12:30:21;4.80;99.90
43581;DHT22;29175;51.030;4.606;2022-12-16T12:33:32;4.90;99.90
43581;DHT22;29175;51.030;4.606;2022-12-16T12:36:21;4.70;99.90
43581;DHT22;29175;51.030;4.606;2022-12-16T12:39:23;4.70;99.90
43581;DHT22;29175;51.030;4.606;2022-12-16T12:42:34;4.70;99.90
43581;DHT22;29175;51.030;4.606;2022-12-16T12:45:41;4.50;99.90
43581;DHT22;29175;51.030;4.606;2022-12-16T12:57:41;4.30;99.90
43581;DHT22;29175;51.030;4.606;2022-12-16T13:00:28;4.30;99.90
43581;DHT22;29175;51.030;4.606;2022-12-16T13:03:33;4.40;99.90
43581;DHT22;29175;51.030;4.606;2022-12-16T13:06:20;4.40;99.90
43581;DHT22;29175;51.030;4.606;2022-12-16T13:09:31;4.30;99.90
43581;DHT22;29175;51.030;4.606;2022-12-16T13:12:19;4.20;99.90
43581;DHT22;29175;51.030;4.606;2022-12-16T13:15:10;4.10;99.90
43581;DHT22;29175;51.030;4.606;2022-12-16T13:20:54;4.20;99.90
43581;DHT22;29175;51.030;4.606;2022-12-16T13:23:42;4.10;99.90
43581;DHT22;29175;51.030;4.606;2022-12-16T13:26:31;4.20;99.90
43581;DHT22;29175;51.030;4.606;2022-12-16T13:32:16;4.30;99.90
43581;DHT22;29175;51.030;4.606;2022-12-16T13:35:14;4.30;99.90
43581;DHT22;29175;51.030;4.606;2022-12-16T13:41:05;4.30;99.90
43581;DHT22;29175;51.030;4.606;2022-12-16T13:43:54;4.30;99.90
43581;DHT22;29175;51.030;4.606;2022-12-16T13:46:40;4.30;99.90
43581;DHT22;29175;51.030;4.606;2022-12-16T13:49:46;4.30;99.90
43581;DHT22;29175;51.030;4.606;2022-12-16T13:52:47;4.30;99.90
43581;DHT22;29175;51.030;4.606;2022-12-16T13:55:43;4.30;99.90
43581;DHT22;29175;51.030;4.606;2022-12-16T13:58:46;4.30;99.90
43581;DHT22;29175;51.030;4.606;2022-12-16T14:01:54;4.30;99.90
43581;DHT22;29175;51.030;4.606;2022-12-16T14:04:48;4.30;99.90
43581;DHT22;29175;51.030;4.606;2022-12-16T14:07:37;4.30;99.90
43581;DHT22;29175;51.030;4.606;2022-12-16T14:10:26;4.20;99.90
43581;DHT22;29175;51.030;4.606;2022-12-16T14:16:12;4.20;99.90
43581;DHT22;29175;51.030;4.606;2022-12-16T14:19:01;4.30;99.90
43581;DHT22;29175;51.030;4.606;2022-12-16T14:21:50;4.20;99.90
43581;DHT22;29175;51.030;4.606;2022-12-16T14:24:37;4.20;99.90
43581;DHT22;29175;51.030;4.606;2022-12-16T14:27:22;4.20;99.90
43581;DHT22;29175;51.030;4.606;2022-12-16T14:30:20;4.10;99.90
43581;DHT22;29175;51.030;4.606;2022-12-16T14:33:24;4.10;99.90
43581;DHT22;29175;51.030;4.606;2022-12-16T14:36:25;4.20;99.90
43581;DHT22;29175;51.030;4.606;2022-12-16T14:39:26;4.10;99.90
43581;DHT22;29175;51.030;4.606;2022-12-16T14:45:36;4.00;99.90
43581;DHT22;29175;51.030;4.606;2022-12-16T14:48:31;4.00;99.90
43581;DHT22;29175;51.030;4.606;2022-12-16T14:57:02;3.90;99.90
43581;DHT22;29175;51.030;4.606;2022-12-16T14:59:47;3.80;99.90
43581;DHT22;29175;51.030;4.606;2022-12-16T15:02:39;3.50;99.90
43581;DHT22;29175;51.030;4.606;2022-12-16T15:05:31;3.70;99.90
43581;DHT22;29175;51.030;4.606;2022-12-16T15:08:16;3.60;99.90
43581;DHT22;29175;51.030;4.606;2022-12-16T15:11:03;3.50;99.90
43581;DHT22;29175;51.030;4.606;2022-12-16T15:13:51;3.40;99.90
43581;DHT22;29175;51.030;4.606;2022-12-16T15:16:37;3.30;99.90
43581;DHT22;29175;51.030;4.606;2022-12-16T15:19:23;3.30;99.90
43581;DHT22;29175;51.030;4.606;2022-12-16T15:22:15;3.20;99.90
43581;DHT22;29175;51.030;4.606;2022-12-16T15:25:00;3.20;99.90
43581;DHT22;29175;51.030;4.606;2022-12-16T15:27:55;3.20;99.90
43581;DHT22;29175;51.030;4.606;2022-12-16T15:30:44;3.00;99.90
43581;DHT22;29175;51.030;4.606;2022-12-16T15:33:32;2.90;99.90
43581;DHT22;29175;51.030;4.606;2022-12-16T15:39:22;2.80;99.90
43581;DHT22;29175;51.030;4.606;2022-12-16T15:42:27;2.60;99.90
43581;DHT22;29175;51.030;4.606;2022-12-16T15:45:38;2.50;99.90
43581;DHT22;29175;51.030;4.606;2022-12-16T15:48:35;2.50;99.90
43581;DHT22;29175;51.030;4.606;2022-12-16T15:51:28;2.40;99.90
43581;DHT22;29175;51.030;4.606;2022-12-16T15:54:18;2.40;99.90
43581;DHT22;29175;51.030;4.606;2022-12-16T15:57:21;2.30;99.90
43581;DHT22;29175;51.030;4.606;2022-12-16T16:00:20;2.10;99.90
43581;DHT22;29175;51.030;4.606;2022-12-16T16:03:18;2.10;99.90
43581;DHT22;29175;51.030;4.606;2022-12-16T16:06:16;1.90;99.90
43581;DHT22;29175;51.030;4.606;2022-12-16T16:09:26;1.90;99.90
43581;DHT22;29175;51.030;4.606;2022-12-16T16:12:15;1.90;99.90
43581;DHT22;29175;51.030;4.606;2022-12-16T16:15:00;1.80;99.90
43581;DHT22;29175;51.030;4.606;2022-12-16T16:17:47;1.80;99.90
43581;DHT22;29175;51.030;4.606;2022-12-16T16:20:36;1.80;99.90
43581;DHT22;29175;51.030;4.606;2022-12-16T16:23:20;1.70;99.90
43581;DHT22;29175;51.030;4.606;2022-12-16T16:26:10;1.60;99.90
43581;DHT22;29175;51.030;4.606;2022-12-16T16:28:56;1.70;99.90
43581;DHT22;29175;51.030;4.606;2022-12-16T16:31:43;1.80;99.90
43581;DHT22;29175;51.030;4.606;2022-12-16T16:34:28;1.60;99.90
43581;DHT22;29175;51.030;4.606;2022-12-16T16:37:14;1.50;99.90
43581;DHT22;29175;51.030;4.606;2022-12-16T16:40:00;1.50;99.90
43581;DHT22;29175;51.030;4.606;2022-12-16T16:42:45;1.50;99.90
43581;DHT22;29175;51.030;4.606;2022-12-16T16:45:29;1.50;99.90
43581;DHT22;29175;51.030;4.606;2022-12-16T16:48:16;1.60;99.90
43581;DHT22;29175;51.030;4.606;2022-12-16T16:51:02;1.40;99.90
43581;DHT22;29175;51.030;4.606;2022-12-16T16:53:50;1.40;99.90
43581;DHT22;29175;51.030;4.606;2022-12-16T16:56:37;1.30;99.90
43581;DHT22;29175;51.030;4.606;2022-12-16T16:59:23;1.30;99.90
43581;DHT22;29175;51.030;4.606;2022-12-16T17:02:19;1.30;99.90
43581;DHT22;29175;51.030;4.606;2022-12-16T17:05:04;1.30;99.90
43581;DHT22;29175;51.030;4.606;2022-12-16T17:07:49;1.20;99.90
43581;DHT22;29175;51.030;4.606;2022-12-16T17:10:36;1.20;99.90
43581;DHT22;29175;51.030;4.606;2022-12-16T17:13:21;1.20;99.90
43581;DHT22;29175;51.030;4.606;2022-12-16T17:16:07;1.00;99.90
43581;DHT22;29175;51.030;4.606;2022-12-16T17:18:52;1.10;99.90
43581;DHT22;29175;51.030;4.606;2022-12-16T17:21:36;1.10;99.90
43581;DHT22;29175;51.030;4.606;2022-12-16T17:24:20;0.90;99.90
43581;DHT22;29175;51.030;4.606;2022-12-16T17:27:18;1.00;99.90
43581;DHT22;29175;51.030;4.606;2022-12-16T17:30:11;0.90;99.90
43581;DHT22;29175;51.030;4.606;2022-12-16T17:32:58;0.90;99.90
43581;DHT22;29175;51.030;4.606;2022-12-16T17:35:49;1.20;99.90
43581;DHT22;29175;51.030;4.606;2022-12-16T17:38:41;1.40;99.90
43581;DHT22;29175;51.030;4.606;2022-12-16T17:41:27;1.60;99.90
43581;DHT22;29175;51.030;4.606;2022-12-16T17:44:12;1.60;99.90
43581;DHT22;29175;51.030;4.606;2022-12-16T17:46:57;1.40;99.90
43581;DHT22;29175;51.030;4.606;2022-12-16T17:49:41;1.40;99.90
43581;DHT22;29175;51.030;4.606;2022-12-16T17:52:25;1.20;99.90
43581;DHT22;29175;51.030;4.606;2022-12-16T17:55:09;1.10;99.90
43581;DHT22;29175;51.030;4.606;2022-12-16T17:57:53;1.10;99.90
43581;DHT22;29175;51.030;4.606;2022-12-16T18:00:37;1.00;99.90
43581;DHT22;29175;51.030;4.606;2022-12-16T18:03:22;0.90;99.90
43581;DHT22;29175;51.030;4.606;2022-12-16T18:06:06;0.70;99.90
43581;DHT22;29175;51.030;4.606;2022-12-16T18:08:50;0.70;99.90
43581;DHT22;29175;51.030;4.606;2022-12-16T18:11:34;0.60;99.90
43581;DHT22;29175;51.030;4.606;2022-12-16T18:14:18;0.70;99.90
43581;DHT22;29175;51.030;4.606;2022-12-16T18:17:22;0.70;99.90
43581;DHT22;29175;51.030;4.606;2022-12-16T18:20:07;0.60;99.90
43581;DHT22;29175;51.030;4.606;2022-12-16T18:22:52;0.40;99.90
43581;DHT22;29175;51.030;4.606;2022-12-16T18:25:36;0.40;99.90
43581;DHT22;29175;51.030;4.606;2022-12-16T18:28:20;0.30;99.90
43581;DHT22;29175;51.030;4.606;2022-12-16T18:31:05;0.40;99.90
43581;DHT22;29175;51.030;4.606;2022-12-16T18:33:49;0.50;99.90
43581;DHT22;29175;51.030;4.606;2022-12-16T18:36:33;0.40;99.90
43581;DHT22;29175;51.030;4.606;2022-12-16T18:39:17;0.40;99.90
43581;DHT22;29175;51.030;4.606;2022-12-16T18:42:01;0.40;99.90
43581;DHT22;29175;51.030;4.606;2022-12-16T18:44:48;0.30;99.90
43581;DHT22;29175;51.030;4.606;2022-12-16T18:47:32;0.40;99.90
43581;DHT22;29175;51.030;4.606;2022-12-16T18:50:16;0.40;99.90
43581;DHT22;29175;51.030;4.606;2022-12-16T18:53:01;0.20;99.90
43581;DHT22;29175;51.030;4.606;2022-12-16T18:55:45;0.10;99.90
43581;DHT22;29175;51.030;4.606;2022-12-16T18:58:29;0.00;99.90
43581;DHT22;29175;51.030;4.606;2022-12-16T19:01:13;0.10;99.90
43581;DHT22;29175;51.030;4.606;2022-12-16T19:03:57;0.20;99.90
43581;DHT22;29175;51.030;4.606;2022-12-16T19:06:41;0.70;99.90
43581;DHT22;29175;51.030;4.606;2022-12-16T19:09:26;0.80;99.90